Kezdőlap
METAR-TAF:

METAR-TAF

Repülőterek :

Jabalpur, India

földrajzi szélesség: 23-10-54N, földrajzi hosszúság: 80-03-31E, magasság: 495 m

Jelenlegi meteorológiai megfigyelések

A jelentés 31 perccel ezelõtt készült, 03:00 UTC
Déli szél 10 kt
Hőmérséklet 27°C
Páratartalom 54%
Légköri nyomás 1015 hPa
Látótávolság: 6000 m

METAR: VAJB 130300Z 18010KT 6000 NSC 27/17 Q1015 NOSIG

Idő: 09:01 (03:31 UTC)

Előrejelzés

A jelentés 4 órával és 31 perccel ezelõtt készült, 23:00 UTC
Az előrejelzés 12-én 00 óra UTC és 12-én 09 óra UTC között érvényes
Déli szél 8 kt
Látótávolság: 5000 m
Szórványos felhőzet 2000 lábon
Szórványos felhőzet 10000 lábon
Száraz légköri homály
12-én 05 óra UTC és 12-én 07 óra UTC között fokozatosan kialakuló
Látótávolság: 6000 m
Kevés felhő 2000 lábon
Szórványos felhőzet 2500 lábon
Szakadozott felhőzet 10000 lábon

TAF: VAJB 112300Z 1200/1209 18008KT 5000 HZ SCT020 SCT100 BECMG 1205/1207 6000 FEW020 SCT025 BKN100

Meteorológiai megfigyelések és előrejelzések több, mint 4000 repülőtéren (METAR és TAF jelentéseket).

A térképen piros és sárga pontok jelzik az elérhető meteorológiai állomásokat.

Mozgassa az egeret a pont fölött, hogy megjelenjen az állomás neve.

Azután kattintson az időjárási megfigyelések és előrejelzések megtekintéséhez.

A térkép megváltoztatása: kattintson a fekete keresztel jelölt zöld gombra ráközelítéshez, a vonallal jelölt zöld gombra távolításhoz, vagy a zöld nyilakra a szomszédos térképek eléréséhez.


METAR-TAF: